createdAt,value
2023-02-03T00:01:40.955Z,35.50
2023-02-03T00:04:09.003Z,35.60
2023-02-03T00:06:38.654Z,35.90
2023-02-03T00:09:09.786Z,36.20
2023-02-03T00:11:37.825Z,36.10
2023-02-03T00:14:08.023Z,35.80
2023-02-03T00:16:36.151Z,35.60
2023-02-03T00:19:04.392Z,35.40
2023-02-03T00:21:32.444Z,35.30
2023-02-03T00:24:01.860Z,35.20
2023-02-03T00:26:29.981Z,35.10
2023-02-03T00:29:00.030Z,34.90
2023-02-03T00:31:28.098Z,35.40
2023-02-03T00:33:56.548Z,35.60
2023-02-03T00:36:24.640Z,35.70
2023-02-03T00:38:52.650Z,36.10
2023-02-03T00:41:22.390Z,36.40
2023-02-03T00:43:50.612Z,36.60
2023-02-03T00:46:18.781Z,36.50
2023-02-03T00:48:46.833Z,36.10
2023-02-03T00:51:14.906Z,35.90
2023-02-03T00:53:42.938Z,35.70
2023-02-03T00:56:12.858Z,35.50
2023-02-03T00:58:42.378Z,35.40
2023-02-03T01:01:10.520Z,35.20
2023-02-03T01:03:38.822Z,35.10
2023-02-03T01:06:11.610Z,35.40
2023-02-03T01:08:39.655Z,35.60
2023-02-03T01:11:08.989Z,35.90
2023-02-03T01:13:37.262Z,36.20
2023-02-03T01:16:08.880Z,36.50
2023-02-03T01:18:36.959Z,35.90
2023-02-03T01:21:08.653Z,35.80
2023-02-03T01:23:36.755Z,35.50
2023-02-03T01:26:05.662Z,35.50
2023-02-03T01:28:33.700Z,35.30
2023-02-03T01:31:12.012Z,35.10
2023-02-03T01:33:41.088Z,35.10
2023-02-03T01:36:09.500Z,35.10
2023-02-03T01:38:37.803Z,35.60
2023-02-03T01:41:06.572Z,35.80
2023-02-03T01:43:35.913Z,36.00
2023-02-03T01:46:05.616Z,36.20
2023-02-03T01:48:35.115Z,35.90
2023-02-03T01:51:03.606Z,35.70
2023-02-03T01:53:31.665Z,35.60
2023-02-03T01:55:59.730Z,35.40
2023-02-03T01:58:29.430Z,35.30
2023-02-03T02:00:57.643Z,35.10
2023-02-03T02:03:26.412Z,35.00
2023-02-03T02:05:58.124Z,35.00
2023-02-03T02:08:26.439Z,35.50
2023-02-03T02:10:54.521Z,35.80
2023-02-03T02:13:22.670Z,35.90
2023-02-03T02:15:53.999Z,36.30
2023-02-03T02:18:25.953Z,36.00
2023-02-03T02:21:30.427Z,35.70
2023-02-03T02:24:25.271Z,35.70
2023-02-03T02:26:58.177Z,35.40
2023-02-03T02:29:47.748Z,35.20
2023-02-03T02:32:32.223Z,35.10
2023-02-03T02:35:04.070Z,35.00
2023-02-03T02:37:37.421Z,35.20
2023-02-03T02:40:10.915Z,35.60
2023-02-03T02:42:42.090Z,35.80
2023-02-03T02:45:12.331Z,36.00
2023-02-03T02:47:41.805Z,36.40
2023-02-03T02:50:12.674Z,36.70
2023-02-03T02:52:42.575Z,36.50
2023-02-03T02:55:12.727Z,36.10
2023-02-03T02:57:49.957Z,35.80
2023-02-03T03:00:20.830Z,35.60
2023-02-03T03:02:50.284Z,35.50
2023-02-03T03:05:18.320Z,35.40
2023-02-03T03:07:48.537Z,35.10
2023-02-03T03:10:18.284Z,35.10
2023-02-03T03:12:47.864Z,35.20
2023-02-03T03:15:17.152Z,35.70
2023-02-03T03:17:46.380Z,35.90
2023-02-03T03:20:17.254Z,36.20
2023-02-03T03:22:48.611Z,36.40
2023-02-03T03:25:17.677Z,35.90
2023-02-03T03:27:47.970Z,35.70
2023-02-03T03:30:18.372Z,35.60
2023-02-03T03:32:46.689Z,35.40
2023-02-03T03:35:16.106Z,35.20
2023-02-03T03:37:45.225Z,35.10
2023-02-03T03:40:16.213Z,35.00
2023-02-03T03:42:47.310Z,35.10
2023-02-03T03:45:16.475Z,35.50
2023-02-03T03:47:47.937Z,35.70
2023-02-03T03:50:19.085Z,35.90
2023-02-03T03:52:47.101Z,36.30
2023-02-03T03:55:15.598Z,35.90
2023-02-03T03:57:46.190Z,35.70
2023-02-03T04:00:16.059Z,35.50
2023-02-03T04:02:44.233Z,35.40
2023-02-03T04:05:12.441Z,35.20
2023-02-03T04:07:42.470Z,35.10
2023-02-03T04:10:15.889Z,35.00
2023-02-03T04:12:43.864Z,35.10
2023-02-03T04:15:18.073Z,36.10
2023-02-03T04:17:46.276Z,35.60
2023-02-03T04:20:14.571Z,36.00
2023-02-03T04:22:43.985Z,36.20
2023-02-03T04:25:12.003Z,35.90
2023-02-03T04:27:40.077Z,35.80
2023-02-03T04:30:09.312Z,35.60
2023-02-03T04:32:37.881Z,35.40
2023-02-03T04:35:06.968Z,35.20
2023-02-03T04:37:35.102Z,35.10
2023-02-03T04:40:04.831Z,35.00
2023-02-03T04:42:32.924Z,35.00
2023-02-03T04:45:01.061Z,35.50
2023-02-03T04:47:29.124Z,35.50
2023-02-03T04:49:57.155Z,35.80
2023-02-03T04:52:25.203Z,36.10
2023-02-03T04:54:53.589Z,36.50
2023-02-03T04:57:23.067Z,36.70
2023-02-03T04:59:51.064Z,36.30
2023-02-03T05:02:19.356Z,36.00
2023-02-03T05:04:47.571Z,35.80
2023-02-03T05:07:15.760Z,35.60
2023-02-03T05:09:46.868Z,35.50
2023-02-03T05:12:14.891Z,35.30
2023-02-03T05:14:44.316Z,35.10
2023-02-03T05:17:15.358Z,35.00
2023-02-03T05:19:43.633Z,35.40
2023-02-03T05:22:11.663Z,35.60
2023-02-03T05:24:45.739Z,35.90
2023-02-03T05:27:13.927Z,36.10
2023-02-03T05:30:01.383Z,36.30
2023-02-03T05:32:29.654Z,35.90
2023-02-03T05:34:57.702Z,35.60
2023-02-03T05:37:26.006Z,35.50
2023-02-03T05:39:54.085Z,35.30
2023-02-03T05:42:21.101Z,35.20
2023-02-03T05:44:49.091Z,35.10
2023-02-03T05:47:18.482Z,35.00
2023-02-03T05:49:46.479Z,35.30
2023-02-03T05:52:18.328Z,35.50
2023-02-03T05:54:46.352Z,35.80
2023-02-03T05:57:14.713Z,36.10
2023-02-03T05:59:42.714Z,36.20
2023-02-03T06:02:10.753Z,35.80
2023-02-03T06:04:41.221Z,35.70
2023-02-03T06:07:10.565Z,35.50
2023-02-03T06:09:38.583Z,35.30
2023-02-03T06:12:07.329Z,35.10
2023-02-03T06:14:35.427Z,35.00
2023-02-03T06:17:03.870Z,35.00
2023-02-03T06:19:32.004Z,35.20
2023-02-03T06:22:01.692Z,35.50
2023-02-03T06:24:29.948Z,35.70
2023-02-03T06:26:58.313Z,36.00
2023-02-03T06:29:26.365Z,36.30
2023-02-03T06:31:54.472Z,35.80
2023-02-03T06:34:22.591Z,35.70
2023-02-03T06:36:50.775Z,35.50
2023-02-03T06:39:20.340Z,35.30
2023-02-03T06:41:49.237Z,35.10
2023-02-03T06:44:17.229Z,35.00
2023-02-03T06:46:45.276Z,35.00
2023-02-03T06:49:13.351Z,34.90
2023-02-03T06:51:41.358Z,35.40
2023-02-03T06:54:09.634Z,35.50
2023-02-03T06:56:42.143Z,35.80
2023-02-03T06:59:10.226Z,36.30
2023-02-03T07:01:38.534Z,36.40
2023-02-03T07:04:06.733Z,36.70
2023-02-03T07:06:34.902Z,36.20
2023-02-03T07:09:03.502Z,36.10
2023-02-03T07:11:31.670Z,35.80
2023-02-03T07:14:01.047Z,35.60
2023-02-03T07:16:29.046Z,35.50
2023-02-03T07:18:57.510Z,35.30
2023-02-03T07:21:25.580Z,35.20
2023-02-03T07:23:53.831Z,35.00
2023-02-03T07:26:23.079Z,35.40
2023-02-03T07:28:52.538Z,35.60
2023-02-03T07:31:22.096Z,35.90
2023-02-03T07:33:50.158Z,36.10
2023-02-03T07:36:18.343Z,36.20
2023-02-03T07:38:46.614Z,35.90
2023-02-03T07:41:16.446Z,35.70
2023-02-03T07:43:45.907Z,35.50
2023-02-03T07:46:13.993Z,35.40
2023-02-03T07:48:43.447Z,35.20
2023-02-03T07:51:11.585Z,35.00
2023-02-03T07:53:39.576Z,35.00
2023-02-03T07:56:07.892Z,35.20
2023-02-03T07:58:35.983Z,35.40
2023-02-03T08:01:11.316Z,35.70
2023-02-03T08:03:39.490Z,35.90
2023-02-03T08:06:09.130Z,36.40
2023-02-03T08:08:37.251Z,35.90
2023-02-03T08:11:05.665Z,35.70
2023-02-03T08:13:34.564Z,35.50
2023-02-03T08:16:02.734Z,35.30
2023-02-03T08:18:36.593Z,35.30
2023-02-03T08:21:05.303Z,35.10
2023-02-03T08:23:34.869Z,35.00
2023-02-03T08:26:05.997Z,35.00
2023-02-03T08:28:34.191Z,35.50
2023-02-03T08:31:02.258Z,35.50
2023-02-03T08:33:30.501Z,35.90
2023-02-03T08:36:00.537Z,36.30
2023-02-03T08:38:28.572Z,35.90
2023-02-03T08:40:57.959Z,35.70
2023-02-03T08:43:25.977Z,35.50
2023-02-03T08:45:54.042Z,35.30
2023-02-03T08:48:22.357Z,35.20
2023-02-03T08:50:52.985Z,35.00
2023-02-03T08:53:21.063Z,35.00
2023-02-03T08:55:49.271Z,34.90
2023-02-03T08:58:18.899Z,35.30
2023-02-03T09:00:49.894Z,35.60
2023-02-03T09:03:18.055Z,35.70
2023-02-03T09:05:46.316Z,36.20
2023-02-03T09:08:14.311Z,36.50
2023-02-03T09:10:42.539Z,36.70
2023-02-03T09:13:10.605Z,36.30
2023-02-03T09:15:40.054Z,36.00
2023-02-03T09:18:08.057Z,35.80
2023-02-03T09:20:37.469Z,35.60
2023-02-03T09:23:05.590Z,35.40
2023-02-03T09:25:34.458Z,35.30
2023-02-03T09:28:02.856Z,35.10
2023-02-03T09:30:33.854Z,35.00
2023-02-03T09:33:03.360Z,35.40
2023-02-03T09:35:31.553Z,35.70
2023-02-03T09:37:59.829Z,35.90
2023-02-03T09:40:29.655Z,36.20
2023-02-03T09:43:04.700Z,36.30
2023-02-03T09:45:32.735Z,35.90
2023-02-03T09:48:04.076Z,35.70
2023-02-03T09:50:34.537Z,35.50
2023-02-03T09:53:05.585Z,35.30
2023-02-03T09:55:35.480Z,35.20
2023-02-03T09:58:05.271Z,35.00
2023-02-03T10:00:36.275Z,35.00
2023-02-03T10:03:08.659Z,35.30
2023-02-03T10:05:58.610Z,35.40
2023-02-03T10:08:35.026Z,35.70
2023-02-03T10:11:11.603Z,36.10
2023-02-03T10:13:45.465Z,36.10
2023-02-03T10:16:35.056Z,35.70
2023-02-03T10:19:05.891Z,35.60
2023-02-03T10:21:36.946Z,35.40
2023-02-03T10:24:05.530Z,35.20
2023-02-03T10:26:33.593Z,35.00
2023-02-03T10:29:04.594Z,35.00
2023-02-03T10:31:34.778Z,34.90
2023-02-03T10:34:10.904Z,35.30
2023-02-03T10:36:49.519Z,35.40
2023-02-03T10:39:20.387Z,35.70
2023-02-03T10:41:48.681Z,36.20
2023-02-03T10:44:16.702Z,36.10
2023-02-03T10:46:45.411Z,35.70
2023-02-03T10:49:14.956Z,35.50
2023-02-03T10:51:45.868Z,35.30
2023-02-03T10:54:32.150Z,35.20
2023-02-03T10:57:04.415Z,35.10
2023-02-03T10:59:33.277Z,35.00
2023-02-03T11:02:01.435Z,34.80
2023-02-03T11:04:31.752Z,35.30
2023-02-03T11:07:01.947Z,35.50
2023-02-03T11:09:32.556Z,35.70
2023-02-03T11:12:09.693Z,36.10
2023-02-03T11:14:38.495Z,36.40
2023-02-03T11:17:10.201Z,36.70
2023-02-03T11:19:39.879Z,36.20
2023-02-03T11:22:08.078Z,36.00
2023-02-03T11:24:39.163Z,35.70
2023-02-03T11:27:08.098Z,35.50
2023-02-03T11:29:36.980Z,35.40
2023-02-03T11:32:07.484Z,35.30
2023-02-03T11:34:36.878Z,35.10
2023-02-03T11:37:29.716Z,35.00
2023-02-03T11:39:58.255Z,35.40
2023-02-03T11:42:27.830Z,35.50
2023-02-03T11:45:13.552Z,35.80
2023-02-03T11:47:45.986Z,36.30
2023-02-03T11:50:23.140Z,36.00
2023-02-03T11:53:14.266Z,35.70
2023-02-03T11:55:47.242Z,35.50
2023-02-03T11:58:54.595Z,35.30
2023-02-03T12:01:41.177Z,35.20
2023-02-03T12:04:45.865Z,35.00
2023-02-03T12:07:33.589Z,34.90
2023-02-03T12:10:08.815Z,35.30
2023-02-03T12:12:43.602Z,35.50
2023-02-03T12:15:22.732Z,35.90
2023-02-03T12:18:15.700Z,36.10
2023-02-03T12:20:51.811Z,36.00
2023-02-03T12:23:26.369Z,35.70
2023-02-03T12:26:02.088Z,35.50
2023-02-03T12:28:37.988Z,35.30
2023-02-03T12:31:10.267Z,35.10
2023-02-03T12:33:40.788Z,35.00
2023-02-03T12:36:10.867Z,34.90
2023-02-03T12:38:41.752Z,34.90
2023-02-03T12:41:12.703Z,35.40
2023-02-03T12:43:43.317Z,35.40
2023-02-03T12:46:13.755Z,35.80
2023-02-03T12:48:46.652Z,36.70
2023-02-03T12:51:17.316Z,35.90
2023-02-03T12:53:48.788Z,35.60
2023-02-03T12:56:21.192Z,35.50
2023-02-03T12:58:51.731Z,35.30
2023-02-03T13:01:22.080Z,35.10
2023-02-03T13:03:51.752Z,35.10
2023-02-03T13:06:23.857Z,34.90
2023-02-03T13:08:53.530Z,34.80
2023-02-03T13:11:25.875Z,35.40
2023-02-03T13:13:56.974Z,35.50
2023-02-03T13:16:27.734Z,35.70
2023-02-03T13:18:58.028Z,36.10
2023-02-03T13:21:26.298Z,36.50
2023-02-03T13:23:54.628Z,36.70
2023-02-03T13:26:49.802Z,36.20
2023-02-03T13:29:30.085Z,35.90
2023-02-03T13:32:06.796Z,35.70
2023-02-03T13:34:43.022Z,35.50
2023-02-03T13:37:42.001Z,35.40
2023-02-03T13:40:29.784Z,35.10
2023-02-03T13:43:00.686Z,35.10
2023-02-03T13:45:31.067Z,35.40
2023-02-03T13:48:01.454Z,35.50
2023-02-03T13:50:30.806Z,35.50
2023-02-03T13:53:01.011Z,36.00
2023-02-03T13:55:38.305Z,36.40
2023-02-03T13:58:08.762Z,35.90
2023-02-03T14:01:08.924Z,35.60
2023-02-03T14:03:47.083Z,35.50
2023-02-03T14:06:56.998Z,35.30
2023-02-03T14:09:40.725Z,35.20
2023-02-03T14:12:35.882Z,35.00
2023-02-03T14:15:31.570Z,34.90
2023-02-03T14:18:22.473Z,35.50
2023-02-03T14:21:13.595Z,35.60
2023-02-03T14:23:45.509Z,35.90
2023-02-03T14:26:19.851Z,36.30
2023-02-03T14:28:48.153Z,35.80
2023-02-03T14:31:19.989Z,35.50
2023-02-03T14:34:07.408Z,35.50
2023-02-03T14:36:47.122Z,35.90
2023-02-03T14:39:55.475Z,35.10
2023-02-03T14:42:53.899Z,35.00
2023-02-03T14:45:35.483Z,34.90
2023-02-03T14:48:13.664Z,35.50
2023-02-03T14:50:56.082Z,35.60
2023-02-03T14:53:36.787Z,35.80
2023-02-03T14:56:14.022Z,36.30
2023-02-03T14:58:43.824Z,35.80
2023-02-03T15:01:25.006Z,35.60
2023-02-03T15:04:26.642Z,35.50
2023-02-03T15:06:55.064Z,35.40
2023-02-03T15:09:27.097Z,35.10
2023-02-03T15:11:55.805Z,35.10
2023-02-03T15:14:25.824Z,34.90
2023-02-03T15:16:56.506Z,35.30
2023-02-03T15:19:27.580Z,35.50
2023-02-03T15:21:56.190Z,35.60
2023-02-03T15:24:36.058Z,36.10
2023-02-03T15:27:04.896Z,36.40
2023-02-03T15:29:36.833Z,36.80
2023-02-03T15:32:09.226Z,36.60
2023-02-03T15:34:43.359Z,36.10
2023-02-03T15:37:15.707Z,35.90
2023-02-03T15:39:48.233Z,35.60
2023-02-03T15:42:21.954Z,35.40
2023-02-03T15:44:53.915Z,35.30
2023-02-03T15:47:25.599Z,35.20
2023-02-03T15:50:10.096Z,35.00
2023-02-03T15:52:39.411Z,35.30
2023-02-03T15:55:14.426Z,35.70
2023-02-03T15:57:44.077Z,35.80
2023-02-03T16:00:20.240Z,36.10
2023-02-03T16:02:48.502Z,36.30
2023-02-03T16:05:23.987Z,35.80
2023-02-03T16:07:52.086Z,35.70
2023-02-03T16:10:28.701Z,35.50
2023-02-03T16:13:23.296Z,35.30
2023-02-03T16:16:08.275Z,35.20
2023-02-03T16:21:06.207Z,34.90
2023-02-03T16:23:34.525Z,35.40
2023-02-03T16:26:07.296Z,35.60
2023-02-03T16:28:56.090Z,35.80
2023-02-03T16:31:24.834Z,36.10
2023-02-03T16:34:10.557Z,36.00
2023-02-03T16:37:01.814Z,35.80
2023-02-03T16:39:47.550Z,35.50
2023-02-03T16:42:34.606Z,35.40
2023-02-03T16:45:20.880Z,35.20
2023-02-03T16:48:06.783Z,35.10
2023-02-03T16:50:59.447Z,34.90
2023-02-03T16:53:31.554Z,35.30
2023-02-03T16:56:01.204Z,35.50
2023-02-03T16:58:32.901Z,35.80
2023-02-03T17:01:02.955Z,36.00
2023-02-03T17:03:33.098Z,36.20
2023-02-03T17:06:03.671Z,35.80
2023-02-03T17:08:33.930Z,35.60
2023-02-03T17:11:06.846Z,35.50
2023-02-03T17:13:34.983Z,35.30
2023-02-03T17:16:08.214Z,35.20
2023-02-03T17:18:36.485Z,35.00
2023-02-03T17:21:07.313Z,34.90
2023-02-03T17:23:36.761Z,35.20
2023-02-03T17:26:05.244Z,35.50
2023-02-03T17:28:33.767Z,35.70
2023-02-03T17:31:02.888Z,36.00
2023-02-03T17:33:31.936Z,36.30
2023-02-03T17:36:05.378Z,36.70
2023-02-03T17:38:34.083Z,36.70
2023-02-03T17:55:03.389Z,35.10
2023-02-03T17:57:38.829Z,35.10
2023-02-03T18:00:14.338Z,36.30
2023-02-03T18:02:43.575Z,35.60
2023-02-03T18:05:12.438Z,35.90
2023-02-03T18:07:40.848Z,36.30
2023-02-03T18:10:09.639Z,36.10
2023-02-03T18:12:40.009Z,35.80
2023-02-03T18:15:08.995Z,35.60
2023-02-03T18:17:37.597Z,35.50
2023-02-03T18:20:07.156Z,35.30
2023-02-03T18:22:35.828Z,35.10
2023-02-03T18:25:04.022Z,35.10
2023-02-03T18:27:32.469Z,35.00
2023-02-03T18:30:02.168Z,35.30
2023-02-03T18:32:32.777Z,35.50
2023-02-03T18:35:01.800Z,35.80
2023-02-03T18:37:32.487Z,36.10
2023-02-03T18:40:01.125Z,36.20
2023-02-03T18:42:29.374Z,35.90
2023-02-03T18:44:57.695Z,35.60
2023-02-03T18:47:27.559Z,35.50
2023-02-03T18:49:55.777Z,35.30
2023-02-03T18:52:24.192Z,35.10
2023-02-03T18:54:52.709Z,35.10
2023-02-03T18:57:22.718Z,35.00
2023-02-03T18:59:51.028Z,35.30
2023-02-03T19:02:19.346Z,35.50
2023-02-03T19:04:51.301Z,35.70
2023-02-03T19:07:19.668Z,36.00
2023-02-03T19:09:48.828Z,36.30
2023-02-03T19:12:19.947Z,35.80
2023-02-03T19:14:48.395Z,35.70
2023-02-03T19:17:17.050Z,35.50
2023-02-03T19:19:51.860Z,35.40
2023-02-03T19:22:20.067Z,36.00
2023-02-03T19:24:48.996Z,36.40
2023-02-03T19:27:17.209Z,36.90
2023-02-03T19:29:50.340Z,40.00
2023-02-03T19:32:18.811Z,45.30
2023-02-03T19:34:47.060Z,35.70
2023-02-03T19:37:17.067Z,36.10
2023-02-03T19:39:50.534Z,36.40
2023-02-03T19:42:19.898Z,36.70
2023-02-03T19:44:48.241Z,36.80
2023-02-03T19:47:16.413Z,36.20
2023-02-03T19:49:45.058Z,36.10
2023-02-03T19:52:13.904Z,35.80
2023-02-03T19:54:43.790Z,35.60
2023-02-03T19:57:12.001Z,35.50
2023-02-03T19:59:40.648Z,35.30
2023-02-03T20:02:14.143Z,35.30
2023-02-03T20:04:44.191Z,35.30
2023-02-03T20:07:12.991Z,35.60
2023-02-03T20:09:41.198Z,35.70
2023-02-03T20:12:10.813Z,36.10
2023-02-03T20:14:39.082Z,36.40
2023-02-03T20:17:13.185Z,36.70
2023-02-03T20:19:41.352Z,35.90
2023-02-03T20:22:09.761Z,35.70
2023-02-03T20:24:38.141Z,35.50
2023-02-03T20:27:06.824Z,35.40
2023-02-03T20:29:36.637Z,35.30
2023-02-03T20:32:06.891Z,35.10
2023-02-03T20:34:35.641Z,35.10
2023-02-03T20:37:03.939Z,35.50
2023-02-03T20:39:32.362Z,35.80
2023-02-03T20:42:00.824Z,36.30
2023-02-03T20:44:29.221Z,36.40
2023-02-03T20:46:59.177Z,36.40
2023-02-03T20:49:27.393Z,36.10
2023-02-03T20:51:55.845Z,35.90
2023-02-03T20:54:24.262Z,35.80
2023-02-03T20:56:53.182Z,35.60
2023-02-03T20:59:21.780Z,35.50
2023-02-03T21:01:50.818Z,35.40
2023-02-03T21:04:38.039Z,35.30
2023-02-03T21:07:12.690Z,35.40
2023-02-03T21:09:41.423Z,35.90
2023-02-03T21:12:12.812Z,36.10
2023-02-03T21:14:43.027Z,36.20
2023-02-03T21:17:16.656Z,36.20
2023-02-03T21:19:47.320Z,35.90
2023-02-03T21:22:18.778Z,35.60
2023-02-03T21:24:53.878Z,35.50
2023-02-03T21:27:29.517Z,35.40
2023-02-03T21:29:58.218Z,35.30
2023-02-03T21:32:27.339Z,35.10
2023-02-03T21:34:57.166Z,35.00
2023-02-03T21:37:39.017Z,35.50
2023-02-03T21:40:22.593Z,35.50
2023-02-03T21:42:50.955Z,35.80
2023-02-03T21:45:36.823Z,36.30
2023-02-03T21:48:35.713Z,36.60
2023-02-03T21:51:05.770Z,36.80
2023-02-03T21:53:36.110Z,36.30
2023-02-03T21:56:17.100Z,36.10
2023-02-03T21:58:47.219Z,35.90
2023-02-03T22:01:17.638Z,35.60
2023-02-03T22:03:47.722Z,35.50
2023-02-03T22:06:27.855Z,35.40
2023-02-03T22:08:56.684Z,35.30
2023-02-03T22:11:26.533Z,35.30
2023-02-03T22:13:54.759Z,35.70
2023-02-03T22:16:23.164Z,35.80
2023-02-03T22:18:51.515Z,36.20
2023-02-03T22:21:19.762Z,36.40
2023-02-03T22:23:49.695Z,36.10
2023-02-03T22:26:18.178Z,35.90
2023-02-03T22:28:47.312Z,35.70
2023-02-03T22:31:15.797Z,35.50
2023-02-03T22:33:44.069Z,35.40
2023-02-03T22:36:12.287Z,35.30
2023-02-03T22:38:40.911Z,35.10
2023-02-03T22:41:11.961Z,35.10
2023-02-03T22:43:40.258Z,35.60
2023-02-03T22:46:09.050Z,35.70
2023-02-03T22:48:37.297Z,36.00
2023-02-03T22:51:05.779Z,36.30
2023-02-03T22:53:34.888Z,36.30
2023-02-03T22:56:03.152Z,35.90
2023-02-03T22:58:32.929Z,35.70
2023-02-03T23:01:01.120Z,35.50
2023-02-03T23:03:32.613Z,35.60
2023-02-03T23:06:03.944Z,35.30
2023-02-03T23:08:32.442Z,35.20
2023-02-03T23:11:00.617Z,35.10
2023-02-03T23:13:28.943Z,35.50
2023-02-03T23:15:59.403Z,35.70
2023-02-03T23:18:27.724Z,35.90
2023-02-03T23:20:56.420Z,36.30
2023-02-03T23:23:24.498Z,36.50
2023-02-03T23:25:52.585Z,36.00
2023-02-03T23:28:20.753Z,35.80
2023-02-03T23:30:49.010Z,35.60
2023-02-03T23:33:18.505Z,35.50
2023-02-03T23:35:45.654Z,35.30
2023-02-03T23:38:13.879Z,35.20
2023-02-03T23:40:41.958Z,35.10
2023-02-03T23:43:10.030Z,35.30
2023-02-03T23:45:38.382Z,35.60
2023-02-03T23:48:06.770Z,35.70
2023-02-03T23:50:36.488Z,35.90
2023-02-03T23:53:04.550Z,36.30
2023-02-03T23:55:32.675Z,36.60
2023-02-03T23:58:00.721Z,36.70
